Wheelock, Texas
Current Conditions -  °F | °C
As of 2:35 AM on Friday 28 Nov 2014 (Local Time) from KCFD Reporting Station
Clear Clear  
Wind Chill: 39°   Ceiling: Unl
Heat Index: 39°   Visibility: 10mi
Dew Point: 35°   Wind: 3mph
Humidity: 84%   Direction: 50°NE
Pressure: 30.38"   Gusts: NA
Location:  30.9°N, 96.39°W
Report Text: KCFD 280835Z AUTO 05003KT 10SM CLR 04/02 A3038 RMK AO2 T00400015
Loading
Personal Weather Stations






























Interactive Weather Map New forecast layout! Learn more

10-Day Weather Forecast

Advertisements
Track Severe Weather on mobile